Colorado Springs, CO (80920)

1:08 AM MDT on April 21, 2015 (GMT -0600)
Charleston Place, Briargate, CO | | Change Station
CLOSE
Current Station
Personal Weather Station
Location: Colorado Springs, CO
Elevation: 6870 ft
Nearby Weather Stations

Elev 6870 ft 38.95 °N, 104.76 °W | Updated 1 second ago

Clear
Clear
33.8 °F
Feels Like 34 °F
N
0.0
Wind Variable Wind from ENE
Gusts 0.0 mph

Today
High -- | Low -- °F
--% Chance of Precip.
Yesterday
High -- | Low -- °F
Precip. -- in
6:14 AM 7:41 PM
Waxing Crescent, 8% visible
Pressure 29.96 in
Visibility 10.0 miles
Clouds Clear
Windchill 34 °F
Dew Point 28 °F
Humidity 78%
Rainfall 0.00 in
Snow Depth Not available.
UV 0 out of 12
Pollen 7.80 out of 12
Air Quality Not available.
Flu Activity Local Activity
METAR KAFF 210658Z AUTO 36005KT 10SM CLR 00/M01 A2999 RMK AO2 SLP144 T10011010 401061002

More Conditions Fewer Conditions

Pressure 29.96 in
Visibility 10.0 miles
Clouds Clear
Windchill 34 °F
Dew Point 28 °F
Humidity 78%
Rainfall 0.00 in
Snow Depth Not available.
UV 0 out of 12
Pollen 7.80 out of 12
Air Quality Not available.
Flu Activity Local Activity
METAR KAFF 210658Z AUTO 36005KT 10SM CLR 00/M01 A2999 RMK AO2 SLP144 T10011010 401061002

More Conditions Fewer Conditions

10-Day Weather Forecast

Almanac

Astronomy

Apr. 21, 2015 Rise Set
Actual Time
Civil Twilight
Nautical Twilight
Astronomical Twilight
Moon
Length of Visible Light
Length of Day
Tomorrow will be .
, % of the Moon is Illuminated

Today's Extremes

State Highs State Lows

Community

WunderPhotos

Upload Photos

1,815,323 photos uploaded!

WunderBlogs® & News

Nearby

Air Quality

  Air Quality AQ Index Pollutant
Not available.

Snow Depth

Station Depth Elevation

Earthquake Activity

City Distance Mag. Time & Date
Minimum magnitude displayed is 2.5.

Coastal Water Temperatures

Place Temperature

Stations

Nearby Weather Stations

Station Location Temp. Windchill Dew Point Humidity Wind Precip. Elev Updated Type